sensor_id;sensor_type;location;lat;lon;timestamp;P1;durP1;ratioP1;P2;durP2;ratioP2
12024;SDS011;6073;53.230;10.444;2024-01-30T00:00:03;7.20;;;5.22;;
12024;SDS011;6073;53.230;10.444;2024-01-30T00:02:29;7.10;;;5.22;;
12024;SDS011;6073;53.230;10.444;2024-01-30T00:04:55;7.57;;;5.38;;
12024;SDS011;6073;53.230;10.444;2024-01-30T00:07:21;8.32;;;4.55;;
12024;SDS011;6073;53.230;10.444;2024-01-30T00:09:46;7.25;;;4.90;;
12024;SDS011;6073;53.230;10.444;2024-01-30T00:12:13;6.28;;;4.85;;
12024;SDS011;6073;53.230;10.444;2024-01-30T00:14:41;7.43;;;4.65;;
12024;SDS011;6073;53.230;10.444;2024-01-30T00:17:08;7.22;;;4.78;;
12024;SDS011;6073;53.230;10.444;2024-01-30T00:19:34;6.47;;;4.88;;
12024;SDS011;6073;53.230;10.444;2024-01-30T00:21:59;7.68;;;5.30;;
12024;SDS011;6073;53.230;10.444;2024-01-30T00:24:25;7.45;;;5.07;;
12024;SDS011;6073;53.230;10.444;2024-01-30T00:26:50;8.23;;;5.30;;
12024;SDS011;6073;53.230;10.444;2024-01-30T00:29:17;8.50;;;5.07;;
12024;SDS011;6073;53.230;10.444;2024-01-30T00:31:44;7.25;;;5.25;;
12024;SDS011;6073;53.230;10.444;2024-01-30T00:34:10;5.13;;;4.40;;
12024;SDS011;6073;53.230;10.444;2024-01-30T00:36:36;6.40;;;4.70;;
12024;SDS011;6073;53.230;10.444;2024-01-30T00:39:02;7.47;;;5.45;;
12024;SDS011;6073;53.230;10.444;2024-01-30T00:41:31;5.95;;;5.10;;
12024;SDS011;6073;53.230;10.444;2024-01-30T00:43:57;9.25;;;5.07;;
12024;SDS011;6073;53.230;10.444;2024-01-30T00:46:22;5.93;;;4.95;;
12024;SDS011;6073;53.230;10.444;2024-01-30T00:48:48;8.27;;;5.22;;
12024;SDS011;6073;53.230;10.444;2024-01-30T00:51:13;7.05;;;5.55;;
12024;SDS011;6073;53.230;10.444;2024-01-30T00:53:39;7.20;;;5.75;;
12024;SDS011;6073;53.230;10.444;2024-01-30T00:56:06;9.32;;;5.72;;
12024;SDS011;6073;53.230;10.444;2024-01-30T00:58:32;9.65;;;5.63;;
12024;SDS011;6073;53.230;10.444;2024-01-30T01:00:58;7.50;;;5.20;;
12024;SDS011;6073;53.230;10.444;2024-01-30T01:03:24;10.48;;;5.90;;
12024;SDS011;6073;53.230;10.444;2024-01-30T01:05:50;6.80;;;5.15;;
12024;SDS011;6073;53.230;10.444;2024-01-30T01:08:15;8.20;;;5.40;;
12024;SDS011;6073;53.230;10.444;2024-01-30T01:10:41;8.27;;;6.15;;
12024;SDS011;6073;53.230;10.444;2024-01-30T01:13:06;8.40;;;5.68;;
12024;SDS011;6073;53.230;10.444;2024-01-30T01:15:32;8.18;;;5.55;;
12024;SDS011;6073;53.230;10.444;2024-01-30T01:17:57;7.43;;;5.55;;
12024;SDS011;6073;53.230;10.444;2024-01-30T01:20:23;7.72;;;6.18;;
12024;SDS011;6073;53.230;10.444;2024-01-30T01:22:48;8.65;;;6.28;;
12024;SDS011;6073;53.230;10.444;2024-01-30T01:25:14;8.35;;;5.82;;
12024;SDS011;6073;53.230;10.444;2024-01-30T01:27:40;8.15;;;5.82;;
12024;SDS011;6073;53.230;10.444;2024-01-30T01:30:07;10.63;;;6.32;;
12024;SDS011;6073;53.230;10.444;2024-01-30T01:32:34;8.20;;;5.97;;
12024;SDS011;6073;53.230;10.444;2024-01-30T01:35:00;9.10;;;6.10;;
12024;SDS011;6073;53.230;10.444;2024-01-30T01:37:26;8.45;;;6.00;;
12024;SDS011;6073;53.230;10.444;2024-01-30T01:39:52;10.95;;;6.22;;
12024;SDS011;6073;53.230;10.444;2024-01-30T01:42:17;8.98;;;6.55;;
12024;SDS011;6073;53.230;10.444;2024-01-30T01:44:43;9.40;;;6.35;;
12024;SDS011;6073;53.230;10.444;2024-01-30T01:47:08;7.32;;;5.25;;
12024;SDS011;6073;53.230;10.444;2024-01-30T01:49:34;8.82;;;5.68;;
12024;SDS011;6073;53.230;10.444;2024-01-30T01:51:59;7.43;;;5.70;;
12024;SDS011;6073;53.230;10.444;2024-01-30T01:54:25;8.48;;;5.90;;
12024;SDS011;6073;53.230;10.444;2024-01-30T01:56:52;8.82;;;5.88;;
12024;SDS011;6073;53.230;10.444;2024-01-30T01:59:18;9.23;;;6.03;;
12024;SDS011;6073;53.230;10.444;2024-01-30T02:01:45;8.48;;;6.18;;
12024;SDS011;6073;53.230;10.444;2024-01-30T02:04:14;9.07;;;6.18;;
12024;SDS011;6073;53.230;10.444;2024-01-30T02:06:40;12.15;;;6.68;;
12024;SDS011;6073;53.230;10.444;2024-01-30T02:09:06;7.82;;;5.80;;
12024;SDS011;6073;53.230;10.444;2024-01-30T02:11:32;8.00;;;5.60;;
12024;SDS011;6073;53.230;10.444;2024-01-30T02:14:02;8.98;;;5.78;;
12024;SDS011;6073;53.230;10.444;2024-01-30T02:16:28;8.65;;;5.88;;
12024;SDS011;6073;53.230;10.444;2024-01-30T02:18:55;8.35;;;5.75;;
12024;SDS011;6073;53.230;10.444;2024-01-30T02:21:20;8.40;;;5.93;;
12024;SDS011;6073;53.230;10.444;2024-01-30T02:23:49;7.30;;;5.50;;
12024;SDS011;6073;53.230;10.444;2024-01-30T02:26:15;9.95;;;6.32;;
12024;SDS011;6073;53.230;10.444;2024-01-30T02:28:41;8.88;;;6.20;;
12024;SDS011;6073;53.230;10.444;2024-01-30T02:31:07;9.43;;;6.57;;
12024;SDS011;6073;53.230;10.444;2024-01-30T02:33:32;11.13;;;6.40;;
12024;SDS011;6073;53.230;10.444;2024-01-30T02:35:58;9.75;;;6.70;;
12024;SDS011;6073;53.230;10.444;2024-01-30T02:38:23;10.52;;;6.60;;
12024;SDS011;6073;53.230;10.444;2024-01-30T02:40:50;9.68;;;6.07;;
12024;SDS011;6073;53.230;10.444;2024-01-30T02:43:15;8.57;;;6.30;;
12024;SDS011;6073;53.230;10.444;2024-01-30T02:45:41;8.93;;;6.38;;
12024;SDS011;6073;53.230;10.444;2024-01-30T02:48:07;10.00;;;6.30;;
12024;SDS011;6073;53.230;10.444;2024-01-30T02:50:33;9.25;;;6.47;;
12024;SDS011;6073;53.230;10.444;2024-01-30T02:52:58;10.52;;;6.50;;
12024;SDS011;6073;53.230;10.444;2024-01-30T02:55:24;11.25;;;6.68;;
12024;SDS011;6073;53.230;10.444;2024-01-30T02:57:49;8.88;;;6.50;;
12024;SDS011;6073;53.230;10.444;2024-01-30T03:00:15;10.18;;;6.80;;
12024;SDS011;6073;53.230;10.444;2024-01-30T03:02:40;10.45;;;7.00;;
12024;SDS011;6073;53.230;10.444;2024-01-30T03:05:08;9.70;;;6.97;;
12024;SDS011;6073;53.230;10.444;2024-01-30T03:07:33;7.68;;;6.30;;
12024;SDS011;6073;53.230;10.444;2024-01-30T03:09:59;8.40;;;6.13;;
12024;SDS011;6073;53.230;10.444;2024-01-30T03:12:24;9.98;;;6.80;;
12024;SDS011;6073;53.230;10.444;2024-01-30T03:14:50;10.35;;;6.80;;
12024;SDS011;6073;53.230;10.444;2024-01-30T03:17:16;10.85;;;6.88;;
12024;SDS011;6073;53.230;10.444;2024-01-30T03:19:41;12.38;;;6.88;;
12024;SDS011;6073;53.230;10.444;2024-01-30T03:22:07;12.73;;;6.45;;
12024;SDS011;6073;53.230;10.444;2024-01-30T03:24:32;9.30;;;6.70;;
12024;SDS011;6073;53.230;10.444;2024-01-30T03:26:58;10.20;;;6.60;;
12024;SDS011;6073;53.230;10.444;2024-01-30T03:29:24;9.93;;;6.43;;
12024;SDS011;6073;53.230;10.444;2024-01-30T03:31:49;8.50;;;6.65;;
12024;SDS011;6073;53.230;10.444;2024-01-30T03:34:15;10.43;;;6.75;;
12024;SDS011;6073;53.230;10.444;2024-01-30T03:36:40;13.30;;;7.72;;
12024;SDS011;6073;53.230;10.444;2024-01-30T03:39:06;10.60;;;6.75;;
12024;SDS011;6073;53.230;10.444;2024-01-30T03:41:31;10.57;;;7.45;;
12024;SDS011;6073;53.230;10.444;2024-01-30T03:43:57;10.13;;;7.28;;
12024;SDS011;6073;53.230;10.444;2024-01-30T03:46:24;9.57;;;6.43;;
12024;SDS011;6073;53.230;10.444;2024-01-30T03:48:49;11.23;;;6.88;;
12024;SDS011;6073;53.230;10.444;2024-01-30T03:51:15;9.90;;;7.80;;
12024;SDS011;6073;53.230;10.444;2024-01-30T03:53:43;9.30;;;6.68;;
12024;SDS011;6073;53.230;10.444;2024-01-30T03:56:11;12.02;;;7.25;;
12024;SDS011;6073;53.230;10.444;2024-01-30T03:58:38;10.32;;;6.68;;
12024;SDS011;6073;53.230;10.444;2024-01-30T04:01:04;10.65;;;7.07;;
12024;SDS011;6073;53.230;10.444;2024-01-30T04:03:29;10.60;;;7.22;;
12024;SDS011;6073;53.230;10.444;2024-01-30T04:05:55;9.80;;;6.80;;
12024;SDS011;6073;53.230;10.444;2024-01-30T04:08:21;11.07;;;8.07;;
12024;SDS011;6073;53.230;10.444;2024-01-30T04:10:46;10.95;;;7.15;;
12024;SDS011;6073;53.230;10.444;2024-01-30T04:13:12;9.48;;;6.78;;
12024;SDS011;6073;53.230;10.444;2024-01-30T04:15:38;12.05;;;7.68;;
12024;SDS011;6073;53.230;10.444;2024-01-30T04:18:04;13.60;;;7.60;;
12024;SDS011;6073;53.230;10.444;2024-01-30T04:20:30;9.90;;;6.93;;
12024;SDS011;6073;53.230;10.444;2024-01-30T04:22:55;10.98;;;7.88;;
12024;SDS011;6073;53.230;10.444;2024-01-30T04:25:21;10.15;;;7.00;;
12024;SDS011;6073;53.230;10.444;2024-01-30T04:27:46;11.85;;;7.28;;
12024;SDS011;6073;53.230;10.444;2024-01-30T04:30:12;11.07;;;7.00;;
12024;SDS011;6073;53.230;10.444;2024-01-30T04:32:38;9.85;;;7.65;;
12024;SDS011;6073;53.230;10.444;2024-01-30T04:35:03;12.57;;;8.50;;
12024;SDS011;6073;53.230;10.444;2024-01-30T04:37:29;11.82;;;7.85;;
12024;SDS011;6073;53.230;10.444;2024-01-30T04:39:55;11.00;;;7.28;;
12024;SDS011;6073;53.230;10.444;2024-01-30T04:42:21;12.80;;;8.02;;
12024;SDS011;6073;53.230;10.444;2024-01-30T04:44:47;11.63;;;7.95;;
12024;SDS011;6073;53.230;10.444;2024-01-30T04:47:12;11.60;;;7.55;;
12024;SDS011;6073;53.230;10.444;2024-01-30T04:49:38;11.27;;;8.27;;
12024;SDS011;6073;53.230;10.444;2024-01-30T04:52:05;12.18;;;8.43;;
12024;SDS011;6073;53.230;10.444;2024-01-30T04:54:31;13.98;;;8.13;;
12024;SDS011;6073;53.230;10.444;2024-01-30T04:56:56;10.93;;;7.57;;
12024;SDS011;6073;53.230;10.444;2024-01-30T04:59:22;12.93;;;8.00;;
12024;SDS011;6073;53.230;10.444;2024-01-30T05:01:48;11.70;;;7.55;;
12024;SDS011;6073;53.230;10.444;2024-01-30T05:04:13;12.50;;;7.90;;
12024;SDS011;6073;53.230;10.444;2024-01-30T05:06:39;10.93;;;7.20;;
12024;SDS011;6073;53.230;10.444;2024-01-30T05:09:04;12.63;;;8.23;;
12024;SDS011;6073;53.230;10.444;2024-01-30T05:11:30;12.93;;;8.65;;
12024;SDS011;6073;53.230;10.444;2024-01-30T05:13:55;11.52;;;8.02;;
12024;SDS011;6073;53.230;10.444;2024-01-30T05:16:21;12.55;;;8.13;;
12024;SDS011;6073;53.230;10.444;2024-01-30T05:18:47;11.70;;;7.97;;
12024;SDS011;6073;53.230;10.444;2024-01-30T05:21:13;12.63;;;8.10;;
12024;SDS011;6073;53.230;10.444;2024-01-30T05:23:39;10.98;;;7.32;;
12024;SDS011;6073;53.230;10.444;2024-01-30T05:26:06;11.93;;;8.40;;
12024;SDS011;6073;53.230;10.444;2024-01-30T05:28:32;10.80;;;7.85;;
12024;SDS011;6073;53.230;10.444;2024-01-30T05:30:58;13.25;;;8.30;;
12024;SDS011;6073;53.230;10.444;2024-01-30T05:33:23;11.90;;;8.18;;
12024;SDS011;6073;53.230;10.444;2024-01-30T05:35:49;12.57;;;8.48;;
12024;SDS011;6073;53.230;10.444;2024-01-30T05:38:15;11.77;;;8.05;;
12024;SDS011;6073;53.230;10.444;2024-01-30T05:40:41;13.95;;;8.63;;
12024;SDS011;6073;53.230;10.444;2024-01-30T05:43:06;12.98;;;9.02;;
12024;SDS011;6073;53.230;10.444;2024-01-30T05:45:32;11.10;;;8.48;;
12024;SDS011;6073;53.230;10.444;2024-01-30T05:48:00;13.95;;;9.02;;
12024;SDS011;6073;53.230;10.444;2024-01-30T05:50:25;14.40;;;9.65;;
12024;SDS011;6073;53.230;10.444;2024-01-30T05:52:51;18.52;;;11.27;;
12024;SDS011;6073;53.230;10.444;2024-01-30T05:55:17;15.30;;;11.18;;
12024;SDS011;6073;53.230;10.444;2024-01-30T05:57:43;18.33;;;11.52;;
12024;SDS011;6073;53.230;10.444;2024-01-30T06:00:08;15.55;;;10.77;;
12024;SDS011;6073;53.230;10.444;2024-01-30T06:02:34;17.35;;;9.65;;
12024;SDS011;6073;53.230;10.444;2024-01-30T06:05:00;12.32;;;8.73;;
12024;SDS011;6073;53.230;10.444;2024-01-30T06:07:25;14.27;;;8.98;;
12024;SDS011;6073;53.230;10.444;2024-01-30T06:09:51;18.83;;;9.77;;
12024;SDS011;6073;53.230;10.444;2024-01-30T06:12:16;14.88;;;10.27;;
12024;SDS011;6073;53.230;10.444;2024-01-30T06:14:42;15.60;;;9.15;;
12024;SDS011;6073;53.230;10.444;2024-01-30T06:17:08;16.23;;;10.18;;
12024;SDS011;6073;53.230;10.444;2024-01-30T06:19:34;18.33;;;10.27;;
12024;SDS011;6073;53.230;10.444;2024-01-30T06:21:59;14.30;;;9.27;;
12024;SDS011;6073;53.230;10.444;2024-01-30T06:24:25;16.38;;;10.57;;
12024;SDS011;6073;53.230;10.444;2024-01-30T06:26:51;15.07;;;10.05;;
12024;SDS011;6073;53.230;10.444;2024-01-30T06:29:16;14.23;;;10.05;;
12024;SDS011;6073;53.230;10.444;2024-01-30T06:31:42;15.63;;;10.75;;
12024;SDS011;6073;53.230;10.444;2024-01-30T06:34:08;15.63;;;9.90;;
12024;SDS011;6073;53.230;10.444;2024-01-30T06:36:34;16.98;;;10.75;;
12024;SDS011;6073;53.230;10.444;2024-01-30T06:39:00;13.70;;;9.35;;
12024;SDS011;6073;53.230;10.444;2024-01-30T06:41:26;17.35;;;9.40;;
12024;SDS011;6073;53.230;10.444;2024-01-30T06:43:52;15.13;;;9.68;;
12024;SDS011;6073;53.230;10.444;2024-01-30T06:46:17;15.65;;;9.80;;
12024;SDS011;6073;53.230;10.444;2024-01-30T06:48:43;13.30;;;9.15;;
12024;SDS011;6073;53.230;10.444;2024-01-30T06:51:10;16.02;;;9.85;;
12024;SDS011;6073;53.230;10.444;2024-01-30T06:53:36;16.05;;;11.40;;
12024;SDS011;6073;53.230;10.444;2024-01-30T06:56:02;16.13;;;10.15;;
12024;SDS011;6073;53.230;10.444;2024-01-30T06:58:28;18.15;;;9.95;;
12024;SDS011;6073;53.230;10.444;2024-01-30T07:00:54;14.23;;;9.70;;
12024;SDS011;6073;53.230;10.444;2024-01-30T07:03:20;14.25;;;9.85;;
12024;SDS011;6073;53.230;10.444;2024-01-30T07:05:45;15.63;;;9.38;;
12024;SDS011;6073;53.230;10.444;2024-01-30T07:08:11;15.55;;;9.40;;
12024;SDS011;6073;53.230;10.444;2024-01-30T07:10:36;16.30;;;9.52;;
12024;SDS011;6073;53.230;10.444;2024-01-30T07:13:02;14.57;;;9.77;;
12024;SDS011;6073;53.230;10.444;2024-01-30T07:15:30;16.75;;;9.30;;
12024;SDS011;6073;53.230;10.444;2024-01-30T07:17:55;12.73;;;9.10;;
12024;SDS011;6073;53.230;10.444;2024-01-30T07:20:21;12.85;;;9.25;;
12024;SDS011;6073;53.230;10.444;2024-01-30T07:22:46;13.27;;;9.10;;
12024;SDS011;6073;53.230;10.444;2024-01-30T07:25:12;14.20;;;8.85;;
12024;SDS011;6073;53.230;10.444;2024-01-30T07:27:38;13.95;;;8.70;;
12024;SDS011;6073;53.230;10.444;2024-01-30T07:30:04;15.30;;;9.50;;
12024;SDS011;6073;53.230;10.444;2024-01-30T07:32:30;16.45;;;9.63;;
12024;SDS011;6073;53.230;10.444;2024-01-30T07:34:56;15.07;;;9.07;;
12024;SDS011;6073;53.230;10.444;2024-01-30T07:37:22;14.75;;;9.85;;
12024;SDS011;6073;53.230;10.444;2024-01-30T07:39:47;14.82;;;8.77;;
12024;SDS011;6073;53.230;10.444;2024-01-30T07:42:13;15.18;;;9.07;;
12024;SDS011;6073;53.230;10.444;2024-01-30T07:44:38;13.70;;;8.35;;
12024;SDS011;6073;53.230;10.444;2024-01-30T07:47:04;13.73;;;8.77;;
12024;SDS011;6073;53.230;10.444;2024-01-30T07:49:30;12.93;;;8.77;;
12024;SDS011;6073;53.230;10.444;2024-01-30T07:51:56;14.77;;;9.70;;
12024;SDS011;6073;53.230;10.444;2024-01-30T07:54:21;14.05;;;9.88;;
12024;SDS011;6073;53.230;10.444;2024-01-30T07:56:47;13.82;;;9.18;;
12024;SDS011;6073;53.230;10.444;2024-01-30T07:59:14;11.60;;;8.00;;
12024;SDS011;6073;53.230;10.444;2024-01-30T08:01:40;14.75;;;8.70;;
12024;SDS011;6073;53.230;10.444;2024-01-30T08:04:05;13.18;;;8.95;;
12024;SDS011;6073;53.230;10.444;2024-01-30T08:06:31;14.05;;;9.40;;
12024;SDS011;6073;53.230;10.444;2024-01-30T08:08:56;12.57;;;9.00;;
12024;SDS011;6073;53.230;10.444;2024-01-30T08:11:24;14.18;;;8.90;;
12024;SDS011;6073;53.230;10.444;2024-01-30T08:13:54;11.60;;;8.10;;
12024;SDS011;6073;53.230;10.444;2024-01-30T08:16:20;12.30;;;7.78;;
12024;SDS011;6073;53.230;10.444;2024-01-30T08:18:45;11.50;;;8.40;;
12024;SDS011;6073;53.230;10.444;2024-01-30T08:21:11;11.98;;;7.72;;
12024;SDS011;6073;53.230;10.444;2024-01-30T08:23:39;12.20;;;8.57;;
12024;SDS011;6073;53.230;10.444;2024-01-30T08:26:05;10.40;;;7.32;;
12024;SDS011;6073;53.230;10.444;2024-01-30T08:37:53;10.63;;;7.80;;
12024;SDS011;6073;53.230;10.444;2024-01-30T08:40:19;11.50;;;8.52;;
12024;SDS011;6073;53.230;10.444;2024-01-30T08:42:53;15.77;;;9.50;;
12024;SDS011;6073;53.230;10.444;2024-01-30T08:45:29;12.10;;;8.00;;
12024;SDS011;6073;53.230;10.444;2024-01-30T08:47:55;13.10;;;8.35;;
12024;SDS011;6073;53.230;10.444;2024-01-30T08:50:28;12.02;;;7.63;;
12024;SDS011;6073;53.230;10.444;2024-01-30T08:53:01;11.07;;;7.65;;
12024;SDS011;6073;53.230;10.444;2024-01-30T08:55:52;11.65;;;8.18;;
12024;SDS011;6073;53.230;10.444;2024-01-30T08:58:18;11.48;;;8.38;;
12024;SDS011;6073;53.230;10.444;2024-01-30T09:00:44;9.57;;;6.53;;
12024;SDS011;6073;53.230;10.444;2024-01-30T09:03:09;8.82;;;6.72;;
12024;SDS011;6073;53.230;10.444;2024-01-30T09:05:35;12.18;;;7.25;;
12024;SDS011;6073;53.230;10.444;2024-01-30T09:08:01;11.18;;;6.55;;
12024;SDS011;6073;53.230;10.444;2024-01-30T09:10:26;11.98;;;6.78;;
12024;SDS011;6073;53.230;10.444;2024-01-30T09:12:55;9.85;;;7.45;;
12024;SDS011;6073;53.230;10.444;2024-01-30T09:15:21;9.43;;;7.22;;
12024;SDS011;6073;53.230;10.444;2024-01-30T09:17:47;10.20;;;7.05;;
12024;SDS011;6073;53.230;10.444;2024-01-30T09:20:12;8.32;;;6.50;;
12024;SDS011;6073;53.230;10.444;2024-01-30T09:22:38;11.10;;;7.18;;
12024;SDS011;6073;53.230;10.444;2024-01-30T09:25:04;9.85;;;7.20;;
12024;SDS011;6073;53.230;10.444;2024-01-30T09:27:30;10.02;;;6.90;;
12024;SDS011;6073;53.230;10.444;2024-01-30T09:29:56;9.43;;;5.97;;
12024;SDS011;6073;53.230;10.444;2024-01-30T09:32:32;11.18;;;6.97;;
12024;SDS011;6073;53.230;10.444;2024-01-30T09:34:58;9.35;;;6.72;;
12024;SDS011;6073;53.230;10.444;2024-01-30T09:37:23;10.50;;;6.43;;
12024;SDS011;6073;53.230;10.444;2024-01-30T09:39:49;9.73;;;6.47;;
12024;SDS011;6073;53.230;10.444;2024-01-30T09:44:50;10.45;;;6.85;;
12024;SDS011;6073;53.230;10.444;2024-01-30T09:47:30;9.65;;;6.47;;
12024;SDS011;6073;53.230;10.444;2024-01-30T09:50:04;8.43;;;6.50;;
12024;SDS011;6073;53.230;10.444;2024-01-30T09:52:31;8.98;;;6.72;;
12024;SDS011;6073;53.230;10.444;2024-01-30T09:54:58;10.13;;;6.93;;
12024;SDS011;6073;53.230;10.444;2024-01-30T09:57:25;10.85;;;7.38;;
12024;SDS011;6073;53.230;10.444;2024-01-30T09:59:51;9.18;;;6.40;;
12024;SDS011;6073;53.230;10.444;2024-01-30T10:02:21;10.07;;;7.30;;
12024;SDS011;6073;53.230;10.444;2024-01-30T10:04:48;10.52;;;6.88;;
12024;SDS011;6073;53.230;10.444;2024-01-30T10:07:20;9.70;;;6.90;;
12024;SDS011;6073;53.230;10.444;2024-01-30T10:09:46;9.68;;;6.95;;
12024;SDS011;6073;53.230;10.444;2024-01-30T10:12:12;8.88;;;6.60;;
12024;SDS011;6073;53.230;10.444;2024-01-30T10:15:09;9.50;;;6.70;;
12024;SDS011;6073;53.230;10.444;2024-01-30T10:21:11;9.98;;;6.50;;
12024;SDS011;6073;53.230;10.444;2024-01-30T10:23:47;9.38;;;6.10;;
12024;SDS011;6073;53.230;10.444;2024-01-30T10:26:21;7.95;;;6.40;;
12024;SDS011;6073;53.230;10.444;2024-01-30T10:28:50;10.00;;;6.57;;
12024;SDS011;6073;53.230;10.444;2024-01-30T10:31:17;10.20;;;6.07;;
12024;SDS011;6073;53.230;10.444;2024-01-30T10:33:44;8.85;;;6.03;;
12024;SDS011;6073;53.230;10.444;2024-01-30T10:36:10;8.45;;;6.32;;
12024;SDS011;6073;53.230;10.444;2024-01-30T10:38:42;11.88;;;6.43;;
12024;SDS011;6073;53.230;10.444;2024-01-30T10:41:15;11.07;;;6.25;;
12024;SDS011;6073;53.230;10.444;2024-01-30T10:50:25;9.13;;;6.05;;
12024;SDS011;6073;53.230;10.444;2024-01-30T10:52:51;8.82;;;6.07;;
12024;SDS011;6073;53.230;10.444;2024-01-30T11:00:00;8.07;;;5.80;;
12024;SDS011;6073;53.230;10.444;2024-01-30T11:02:31;11.48;;;5.65;;
12024;SDS011;6073;53.230;10.444;2024-01-30T11:05:12;6.57;;;5.43;;
12024;SDS011;6073;53.230;10.444;2024-01-30T11:14:02;8.15;;;5.50;;
12024;SDS011;6073;53.230;10.444;2024-01-30T11:16:30;8.20;;;5.45;;
12024;SDS011;6073;53.230;10.444;2024-01-30T11:18:59;8.63;;;5.32;;
12024;SDS011;6073;53.230;10.444;2024-01-30T11:21:27;9.60;;;6.13;;
12024;SDS011;6073;53.230;10.444;2024-01-30T11:23:52;7.70;;;5.97;;
12024;SDS011;6073;53.230;10.444;2024-01-30T11:26:23;10.25;;;6.07;;
12024;SDS011;6073;53.230;10.444;2024-01-30T11:28:53;8.02;;;5.05;;
12024;SDS011;6073;53.230;10.444;2024-01-30T11:31:20;7.05;;;5.32;;
12024;SDS011;6073;53.230;10.444;2024-01-30T11:33:45;7.80;;;4.82;;
12024;SDS011;6073;53.230;10.444;2024-01-30T11:36:11;8.23;;;4.93;;
12024;SDS011;6073;53.230;10.444;2024-01-30T11:38:40;7.28;;;5.18;;
12024;SDS011;6073;53.230;10.444;2024-01-30T11:41:05;6.32;;;4.35;;
12024;SDS011;6073;53.230;10.444;2024-01-30T11:43:31;9.35;;;5.05;;
12024;SDS011;6073;53.230;10.444;2024-01-30T11:45:58;7.32;;;4.93;;
12024;SDS011;6073;53.230;10.444;2024-01-30T11:48:23;7.85;;;4.70;;
12024;SDS011;6073;53.230;10.444;2024-01-30T11:50:51;5.40;;;4.40;;
12024;SDS011;6073;53.230;10.444;2024-01-30T11:53:17;6.82;;;4.68;;
12024;SDS011;6073;53.230;10.444;2024-01-30T11:55:49;7.50;;;4.75;;
12024;SDS011;6073;53.230;10.444;2024-01-30T11:58:15;5.85;;;4.93;;
12024;SDS011;6073;53.230;10.444;2024-01-30T12:00:40;7.15;;;4.80;;
12024;SDS011;6073;53.230;10.444;2024-01-30T12:03:06;6.20;;;4.53;;
12024;SDS011;6073;53.230;10.444;2024-01-30T12:05:32;8.05;;;5.00;;
12024;SDS011;6073;53.230;10.444;2024-01-30T12:07:57;6.57;;;4.85;;
12024;SDS011;6073;53.230;10.444;2024-01-30T12:10:26;7.88;;;4.55;;
12024;SDS011;6073;53.230;10.444;2024-01-30T12:12:52;11.38;;;5.53;;
12024;SDS011;6073;53.230;10.444;2024-01-30T12:15:21;6.57;;;4.70;;
12024;SDS011;6073;53.230;10.444;2024-01-30T12:17:47;6.15;;;4.55;;
12024;SDS011;6073;53.230;10.444;2024-01-30T12:20:14;6.63;;;4.65;;
12024;SDS011;6073;53.230;10.444;2024-01-30T12:22:44;7.75;;;4.88;;
12024;SDS011;6073;53.230;10.444;2024-01-30T12:25:16;6.78;;;4.10;;
12024;SDS011;6073;53.230;10.444;2024-01-30T12:27:43;7.43;;;4.95;;
12024;SDS011;6073;53.230;10.444;2024-01-30T12:30:11;5.95;;;4.32;;
12024;SDS011;6073;53.230;10.444;2024-01-30T12:32:44;7.95;;;4.32;;
12024;SDS011;6073;53.230;10.444;2024-01-30T12:35:11;7.53;;;5.18;;
12024;SDS011;6073;53.230;10.444;2024-01-30T12:37:42;6.15;;;4.47;;
12024;SDS011;6073;53.230;10.444;2024-01-30T12:40:09;5.50;;;4.45;;
12024;SDS011;6073;53.230;10.444;2024-01-30T12:42:36;7.57;;;4.53;;
12024;SDS011;6073;53.230;10.444;2024-01-30T12:45:02;5.65;;;4.25;;
12024;SDS011;6073;53.230;10.444;2024-01-30T12:47:29;6.75;;;4.32;;
12024;SDS011;6073;53.230;10.444;2024-01-30T12:49:55;7.95;;;4.50;;
12024;SDS011;6073;53.230;10.444;2024-01-30T12:52:21;7.25;;;4.13;;
12024;SDS011;6073;53.230;10.444;2024-01-30T12:54:47;9.23;;;5.68;;
12024;SDS011;6073;53.230;10.444;2024-01-30T12:57:13;7.78;;;4.20;;
12024;SDS011;6073;53.230;10.444;2024-01-30T12:59:39;6.45;;;4.20;;
12024;SDS011;6073;53.230;10.444;2024-01-30T13:02:04;6.72;;;4.43;;
12024;SDS011;6073;53.230;10.444;2024-01-30T13:04:30;5.53;;;4.60;;
12024;SDS011;6073;53.230;10.444;2024-01-30T13:06:56;7.07;;;4.43;;
12024;SDS011;6073;53.230;10.444;2024-01-30T13:09:22;6.32;;;4.00;;
12024;SDS011;6073;53.230;10.444;2024-01-30T13:11:49;6.63;;;4.53;;
12024;SDS011;6073;53.230;10.444;2024-01-30T13:14:15;6.30;;;4.10;;
12024;SDS011;6073;53.230;10.444;2024-01-30T13:16:41;7.10;;;4.60;;
12024;SDS011;6073;53.230;10.444;2024-01-30T13:19:07;5.95;;;4.00;;
12024;SDS011;6073;53.230;10.444;2024-01-30T13:21:32;6.45;;;4.43;;
12024;SDS011;6073;53.230;10.444;2024-01-30T13:23:58;6.20;;;4.50;;
12024;SDS011;6073;53.230;10.444;2024-01-30T13:26:23;6.97;;;4.10;;
12024;SDS011;6073;53.230;10.444;2024-01-30T13:28:49;7.30;;;4.63;;
12024;SDS011;6073;53.230;10.444;2024-01-30T13:31:15;6.60;;;3.90;;
12024;SDS011;6073;53.230;10.444;2024-01-30T13:33:41;5.88;;;4.10;;
12024;SDS011;6073;53.230;10.444;2024-01-30T13:36:07;6.15;;;4.60;;
12024;SDS011;6073;53.230;10.444;2024-01-30T13:38:33;8.23;;;4.43;;
12024;SDS011;6073;53.230;10.444;2024-01-30T13:40:59;8.43;;;4.07;;
12024;SDS011;6073;53.230;10.444;2024-01-30T13:43:25;6.65;;;4.18;;
12024;SDS011;6073;53.230;10.444;2024-01-30T13:45:51;5.57;;;4.32;;
12024;SDS011;6073;53.230;10.444;2024-01-30T13:48:17;7.35;;;4.30;;
12024;SDS011;6073;53.230;10.444;2024-01-30T13:50:42;6.68;;;4.53;;
12024;SDS011;6073;53.230;10.444;2024-01-30T13:53:08;7.78;;;4.55;;
12024;SDS011;6073;53.230;10.444;2024-01-30T13:55:33;6.20;;;4.22;;
12024;SDS011;6073;53.230;10.444;2024-01-30T13:57:59;6.18;;;4.30;;
12024;SDS011;6073;53.230;10.444;2024-01-30T14:00:26;5.45;;;4.38;;
12024;SDS011;6073;53.230;10.444;2024-01-30T14:02:52;6.25;;;4.88;;
12024;SDS011;6073;53.230;10.444;2024-01-30T14:05:20;7.57;;;4.18;;
12024;SDS011;6073;53.230;10.444;2024-01-30T14:07:46;5.25;;;4.53;;
12024;SDS011;6073;53.230;10.444;2024-01-30T14:10:12;8.20;;;4.60;;
12024;SDS011;6073;53.230;10.444;2024-01-30T14:12:37;6.68;;;3.83;;
12024;SDS011;6073;53.230;10.444;2024-01-30T14:15:04;6.47;;;4.15;;
12024;SDS011;6073;53.230;10.444;2024-01-30T14:17:29;4.93;;;4.43;;
12024;SDS011;6073;53.230;10.444;2024-01-30T14:19:55;7.22;;;5.03;;
12024;SDS011;6073;53.230;10.444;2024-01-30T14:22:21;5.25;;;4.10;;
12024;SDS011;6073;53.230;10.444;2024-01-30T14:24:46;7.22;;;4.30;;
12024;SDS011;6073;53.230;10.444;2024-01-30T14:27:12;5.78;;;4.10;;
12024;SDS011;6073;53.230;10.444;2024-01-30T14:29:38;6.57;;;4.50;;
12024;SDS011;6073;53.230;10.444;2024-01-30T14:32:03;7.95;;;4.60;;
12024;SDS011;6073;53.230;10.444;2024-01-30T14:34:29;4.85;;;4.30;;
12024;SDS011;6073;53.230;10.444;2024-01-30T14:36:55;6.95;;;4.72;;
12024;SDS011;6073;53.230;10.444;2024-01-30T14:39:21;8.10;;;4.85;;
12024;SDS011;6073;53.230;10.444;2024-01-30T14:41:47;6.35;;;3.95;;
12024;SDS011;6073;53.230;10.444;2024-01-30T14:44:12;8.82;;;4.50;;
12024;SDS011;6073;53.230;10.444;2024-01-30T14:46:39;7.18;;;4.75;;
12024;SDS011;6073;53.230;10.444;2024-01-30T14:49:05;7.80;;;4.85;;
12024;SDS011;6073;53.230;10.444;2024-01-30T14:51:31;6.07;;;4.13;;
12024;SDS011;6073;53.230;10.444;2024-01-30T14:53:57;6.72;;;4.55;;
12024;SDS011;6073;53.230;10.444;2024-01-30T14:56:23;6.28;;;4.22;;
12024;SDS011;6073;53.230;10.444;2024-01-30T14:58:49;8.18;;;5.30;;
12024;SDS011;6073;53.230;10.444;2024-01-30T15:01:15;6.68;;;4.20;;
12024;SDS011;6073;53.230;10.444;2024-01-30T15:03:40;8.32;;;4.68;;
12024;SDS011;6073;53.230;10.444;2024-01-30T15:06:07;7.50;;;4.68;;
12024;SDS011;6073;53.230;10.444;2024-01-30T15:08:33;8.25;;;4.70;;